Time,TemperatureF,DewpointF,PressureIn,WindDirection,WindDirectionDegrees,WindSpeedMPH,WindSpeedGustMPH,Humidity,HourlyPrecipIn,Conditions,Clouds,dailyrainin,SoftwareType,DateUTC
2013-04-19 00:00:00,42.9,39.9,29.59,West,280,15.0,21.0,89,0.00, +RA,,0.00,WeatherDisplay:10.37,2013-04-19 05:00:00,
2013-04-19 00:05:00,42.6,39.0,29.58,West,280,14.0,20.0,87,0.00,-RA,,0.00,WeatherDisplay:10.37,2013-04-19 05:05:00,
2013-04-19 00:10:00,42.6,39.0,29.57,West,277,5.0,16.0,87,0.00,-RA,,0.00,WeatherDisplay:10.37,2013-04-19 05:10:00,
2013-04-19 00:15:00,42.5,38.9,29.57,West,280,7.0,7.0,87,0.00,-RA,,0.00,WeatherDisplay:10.37,2013-04-19 05:15:00,
2013-04-19 00:20:00,42.5,38.9,29.57,WNW,282,10.0,17.0,87,0.01,-RA,,0.01,WeatherDisplay:10.37,2013-04-19 05:20:00,
2013-04-19 00:25:00,42.5,38.9,29.58,WNW,284,9.0,21.0,87,0.00,-RA,,0.01,WeatherDisplay:10.37,2013-04-19 05:25:00,
2013-04-19 00:30:00,42.3,38.1,29.58,West,281,16.0,27.0,85,0.00,-RA,,0.01,WeatherDisplay:10.37,2013-04-19 05:30:00,
2013-04-19 00:40:00,42.1,37.0,29.57,West,277,7.0,24.0,82,0.00,-RA,,0.01,WeatherDisplay:10.37,2013-04-19 05:40:00,
2013-04-19 00:45:00,42.1,37.3,29.57,West,277,9.0,18.0,83,0.00,-RA,,0.01,WeatherDisplay:10.37,2013-04-19 05:45:00,
2013-04-19 00:55:00,42.1,37.6,29.58,West,280,8.0,14.0,84,0.00,-RA,,0.01,WeatherDisplay:10.37,2013-04-19 05:55:00,
2013-04-19 01:00:00,42.1,37.3,29.57,West,271,15.0,17.0,83,0.00,-RA,,0.01,WeatherDisplay:10.37,2013-04-19 06:00:00,
2013-04-19 01:05:00,42.0,36.9,29.58,West,280,18.0,29.0,82,0.00,-RA,,0.01,WeatherDisplay:10.37,2013-04-19 06:05:00,
2013-04-19 01:10:00,41.6,36.2,29.58,West,278,18.0,26.0,81,0.00,-RA,,0.01,WeatherDisplay:10.37,2013-04-19 06:10:00,
2013-04-19 01:15:00,41.3,35.6,29.58,WNW,283,16.0,21.0,80,0.00,-RA,,0.01,WeatherDisplay:10.37,2013-04-19 06:15:00,
2013-04-19 01:20:00,41.2,35.5,29.58,West,281,10.0,27.0,80,0.00,-RA,,0.01,WeatherDisplay:10.37,2013-04-19 06:20:00,
2013-04-19 01:25:00,41.1,35.1,29.58,West,281,18.0,24.0,79,0.00,OVC,,0.01,WeatherDisplay:10.37,2013-04-19 06:25:00,
2013-04-19 01:30:00,40.9,34.9,29.58,West,278,16.0,29.0,79,0.00,OVC,,0.01,WeatherDisplay:10.37,2013-04-19 06:30:00,
2013-04-19 01:35:00,40.8,35.4,29.58,West,274,3.0,15.0,81,0.00,OVC,,0.01,WeatherDisplay:10.37,2013-04-19 06:35:00,
2013-04-19 01:40:00,40.6,34.9,29.59,West,276,9.0,23.0,80,0.00,OVC,,0.01,WeatherDisplay:10.37,2013-04-19 06:40:00,
2013-04-19 01:45:00,40.5,34.5,29.58,West,279,8.0,15.0,79,0.00,OVC,,0.01,WeatherDisplay:10.37,2013-04-19 06:45:00,
2013-04-19 01:50:00,40.3,34.0,29.58,West,276,12.0,25.0,78,0.00,OVC,,0.01,WeatherDisplay:10.37,2013-04-19 06:50:00,
2013-04-19 01:55:00,40.3,34.3,29.59,West,277,9.0,20.0,79,0.00,OVC,,0.01,WeatherDisplay:10.37,2013-04-19 06:55:00,
2013-04-19 02:00:00,40.2,34.2,29.59,West,269,12.0,29.0,79,0.00,OVC,,0.01,WeatherDisplay:10.37,2013-04-19 07:00:00,
2013-04-19 02:05:00,40.2,34.2,29.58,West,272,8.0,18.0,79,0.00,OVC,,0.01,WeatherDisplay:10.37,2013-04-19 07:05:00,
2013-04-19 02:10:00,40.2,34.2,29.58,West,281,7.0,18.0,79,0.00,OVC,,0.01,WeatherDisplay:10.37,2013-04-19 07:10:00,
2013-04-19 02:15:00,40.1,34.1,29.58,West,277,15.0,23.0,79,0.00,OVC,,0.01,WeatherDisplay:10.37,2013-04-19 07:15:00,
2013-04-19 02:25:00,39.9,33.3,29.57,West,271,8.0,29.0,77,0.00,OVC,,0.01,WeatherDisplay:10.37,2013-04-19 07:25:00,
2013-04-19 02:30:00,39.8,33.2,29.58,West,267,12.0,29.0,77,0.00,OVC,,0.01,WeatherDisplay:10.37,2013-04-19 07:30:00,
2013-04-19 02:35:00,39.8,33.5,29.58,West,266,14.0,23.0,78,0.00,OVC,,0.01,WeatherDisplay:10.37,2013-04-19 07:35:00,
2013-04-19 02:40:00,39.6,33.0,29.57,West,274,16.0,27.0,77,0.00,OVC,,0.01,WeatherDisplay:10.37,2013-04-19 07:40:00,
2013-04-19 02:45:00,39.5,32.9,29.58,West,278,12.0,23.0,77,0.00,OVC,,0.01,WeatherDisplay:10.37,2013-04-19 07:45:00,
2013-04-19 02:50:00,39.2,32.6,29.58,West,273,10.0,24.0,77,0.00,OVC,,0.01,WeatherDisplay:10.37,2013-04-19 07:50:00,
2013-04-19 02:55:00,39.2,32.6,29.58,West,273,7.0,23.0,77,0.00,OVC,,0.01,WeatherDisplay:10.37,2013-04-19 07:55:00,
2013-04-19 03:00:00,39.2,32.6,29.58,West,274,9.0,21.0,77,0.00,OVC,,0.01,WeatherDisplay:10.37,2013-04-19 08:00:00,
2013-04-19 03:05:00,39.1,32.5,29.58,West,275,2.0,17.0,77,0.00,OVC,,0.01,WeatherDisplay:10.37,2013-04-19 08:05:00,
2013-04-19 03:15:00,38.8,31.6,29.58,West,281,14.0,27.0,75,0.00,OVC,,0.01,WeatherDisplay:10.37,2013-04-19 08:15:00,
2013-04-19 03:20:00,38.8,31.2,29.58,West,278,17.0,33.0,74,0.00,OVC,,0.01,WeatherDisplay:10.37,2013-04-19 08:20:00,
2013-04-19 03:25:00,38.8,31.6,29.58,West,281,9.0,20.0,75,0.00,OVC,,0.01,WeatherDisplay:10.37,2013-04-19 08:25:00,
2013-04-19 03:30:00,38.7,31.1,29.58,WNW,289,20.0,24.0,74,0.00,OVC,,0.01,WeatherDisplay:10.37,2013-04-19 08:30:00,
2013-04-19 03:35:00,38.6,31.0,29.59,West,279,23.0,27.0,74,0.00,OVC,,0.01,WeatherDisplay:10.37,2013-04-19 08:35:00,
2013-04-19 03:40:00,38.6,31.0,29.59,West,270,17.0,27.0,74,0.00,OVC,,0.01,WeatherDisplay:10.37,2013-04-19 08:40:00,
2013-04-19 03:45:00,38.5,31.3,29.59,West,267,13.0,23.0,75,0.00,OVC,,0.01,WeatherDisplay:10.37,2013-04-19 08:45:00,
2013-04-19 03:55:00,38.5,31.6,29.59,WNW,286,5.0,20.0,76,0.00,OVC,,0.01,WeatherDisplay:10.37,2013-04-19 08:55:00,
2013-04-19 04:00:00,38.5,31.6,29.59,West,275,7.0,14.0,76,0.00,OVC,,0.01,WeatherDisplay:10.37,2013-04-19 09:00:00,
2013-04-19 04:05:00,38.5,31.9,29.59,West,272,0.0,14.0,77,0.00,OVC,,0.01,WeatherDisplay:10.37,2013-04-19 09:05:00,
2013-04-19 04:10:00,38.5,31.6,29.59,West,267,6.0,20.0,76,0.00,OVC,,0.01,WeatherDisplay:10.37,2013-04-19 09:10:00,
2013-04-19 04:15:00,38.5,31.6,29.60,WSW,246,14.0,20.0,76,0.00,OVC,,0.01,WeatherDisplay:10.37,2013-04-19 09:15:00,
2013-04-19 04:20:00,38.5,31.9,29.59,West,264,2.0,9.0,77,0.00,OVC,,0.01,WeatherDisplay:10.37,2013-04-19 09:20:00,
2013-04-19 04:30:00,38.3,30.4,29.60,West,269,24.0,35.0,73,0.00,OVC,,0.01,WeatherDisplay:10.37,2013-04-19 09:30:00,
2013-04-19 04:35:00,38.3,30.4,29.60,West,272,9.0,23.0,73,0.00,OVC,,0.01,WeatherDisplay:10.37,2013-04-19 09:35:00,
2013-04-19 04:40:00,38.3,30.4,29.60,WNW,283,10.0,21.0,73,0.00,OVC,,0.01,WeatherDisplay:10.37,2013-04-19 09:40:00,
2013-04-19 04:45:00,38.3,30.7,29.60,West,279,8.0,15.0,74,0.00,OVC,,0.01,WeatherDisplay:10.37,2013-04-19 09:45:00,
2013-04-19 04:50:00,38.2,31.0,29.60,West,269,6.0,18.0,75,0.00,OVC,,0.01,WeatherDisplay:10.37,2013-04-19 09:50:00,
2013-04-19 04:55:00,38.2,30.6,29.60,West,274,12.0,23.0,74,0.00,OVC,,0.01,WeatherDisplay:10.37,2013-04-19 09:55:00,
2013-04-19 05:00:00,38.2,30.6,29.60,West,278,13.0,25.0,74,0.00,OVC,,0.01,WeatherDisplay:10.37,2013-04-19 10:00:00,
2013-04-19 05:05:00,38.0,30.1,29.60,West,274,12.0,25.0,73,0.00,OVC,,0.01,WeatherDisplay:10.37,2013-04-19 10:05:00,
2013-04-19 05:10:00,38.0,30.1,29.60,West,273,8.0,18.0,73,0.00,OVC,,0.01,WeatherDisplay:10.37,2013-04-19 10:10:00,
2013-04-19 05:15:00,38.0,30.4,29.60,West,262,10.0,25.0,74,0.00,OVC,,0.01,WeatherDisplay:10.37,2013-04-19 10:15:00,
2013-04-19 05:20:00,38.0,30.4,29.60,West,269,16.0,24.0,74,0.00,OVC,,0.01,WeatherDisplay:10.37,2013-04-19 10:20:00,
2013-04-19 05:25:00,38.0,30.1,29.61,West,262,10.0,18.0,73,0.00,OVC,,0.01,WeatherDisplay:10.37,2013-04-19 10:25:00,
2013-04-19 05:30:00,38.0,29.8,29.60,West,274,5.0,18.0,72,0.00,OVC,,0.01,WeatherDisplay:10.37,2013-04-19 10:30:00,
2013-04-19 05:35:00,38.0,30.1,29.61,WNW,284,9.0,17.0,73,0.00,OVC,,0.01,WeatherDisplay:10.37,2013-04-19 10:35:00,
2013-04-19 05:40:00,38.0,30.1,29.61,West,270,7.0,17.0,73,0.00,OVC,,0.01,WeatherDisplay:10.37,2013-04-19 10:40:00,
2013-04-19 05:45:00,37.9,29.7,29.61,West,269,9.0,23.0,72,0.00,OVC,,0.01,WeatherDisplay:10.37,2013-04-19 10:45:00,
2013-04-19 05:50:00,37.9,29.7,29.61,West,264,14.0,27.0,72,0.00,OVC,,0.01,WeatherDisplay:10.37,2013-04-19 10:50:00,
2013-04-19 05:55:00,38.0,30.1,29.61,West,269,10.0,11.0,73,0.00,OVC,,0.01,WeatherDisplay:10.37,2013-04-19 10:55:00,
2013-04-19 06:00:00,37.9,30.4,29.61,West,262,8.0,23.0,74,0.00,OVC,,0.01,WeatherDisplay:10.37,2013-04-19 11:00:00,
2013-04-19 06:05:00,37.9,30.4,29.61,West,262,5.0,20.0,74,0.00,OVC,,0.01,WeatherDisplay:10.37,2013-04-19 11:05:00,
2013-04-19 06:10:00,37.9,29.7,29.61,WSW,241,8.0,20.0,72,0.00,OVC,,0.01,WeatherDisplay:10.37,2013-04-19 11:10:00,
2013-04-19 06:15:00,37.9,29.3,29.61,WSW,240,17.0,25.0,71,0.00,OVC,,0.01,WeatherDisplay:10.37,2013-04-19 11:15:00,
2013-04-19 06:20:00,38.0,29.4,29.62,West,260,12.0,20.0,71,0.00,OVC,,0.01,WeatherDisplay:10.37,2013-04-19 11:20:00,
2013-04-19 06:25:00,38.0,29.4,29.62,West,262,12.0,20.0,71,0.00,OVC,,0.01,WeatherDisplay:10.37,2013-04-19 11:25:00,
2013-04-19 06:30:00,38.0,29.8,29.62,West,268,10.0,18.0,72,0.00,OVC,,0.01,WeatherDisplay:10.37,2013-04-19 11:30:00,
2013-04-19 06:35:00,38.0,30.1,29.62,West,268,9.0,18.0,73,0.00,OVC,,0.01,WeatherDisplay:10.37,2013-04-19 11:35:00,
2013-04-19 06:40:00,38.0,29.8,29.62,West,262,9.0,20.0,72,0.00,OVC,,0.01,WeatherDisplay:10.37,2013-04-19 11:40:00,
2013-04-19 06:45:00,38.0,29.8,29.63,West,268,8.0,17.0,72,0.00,OVC,,0.01,WeatherDisplay:10.37,2013-04-19 11:45:00,
2013-04-19 06:50:00,38.0,29.8,29.63,WSW,257,12.0,18.0,72,0.00,OVC,,0.01,WeatherDisplay:10.37,2013-04-19 11:50:00,
2013-04-19 06:55:00,38.0,29.4,29.64,West,274,8.0,20.0,71,0.00,OVC,,0.01,WeatherDisplay:10.37,2013-04-19 11:55:00,
2013-04-19 07:00:00,38.0,29.4,29.64,West,267,7.0,20.0,71,0.00,OVC,,0.01,WeatherDisplay:10.37,2013-04-19 12:00:00,
2013-04-19 07:05:00,38.0,29.4,29.64,WSW,257,5.0,15.0,71,0.00,OVC,,0.01,WeatherDisplay:10.37,2013-04-19 12:05:00,
2013-04-19 07:10:00,38.0,29.4,29.64,West,266,8.0,11.0,71,0.00,OVC,,0.01,WeatherDisplay:10.37,2013-04-19 12:10:00,
2013-04-19 07:20:00,38.0,30.4,29.65,West,266,3.0,11.0,74,0.00,OVC,,0.01,WeatherDisplay:10.37,2013-04-19 12:20:00,
2013-04-19 07:25:00,38.0,30.1,29.64,WNW,286,12.0,18.0,73,0.00,OVC,,0.01,WeatherDisplay:10.37,2013-04-19 12:25:00,
2013-04-19 07:35:00,38.1,29.1,29.65,WSW,253,7.0,18.0,70,0.00,OVC,,0.01,WeatherDisplay:10.37,2013-04-19 12:35:00,
2013-04-19 07:40:00,38.0,28.7,29.66,West,264,9.0,36.0,69,0.00,OVC,,0.01,WeatherDisplay:10.37,2013-04-19 12:40:00,
2013-04-19 07:45:00,37.9,28.6,29.66,West,270,13.0,36.0,69,0.00,OVC,,0.01,WeatherDisplay:10.37,2013-04-19 12:45:00,
2013-04-19 07:50:00,37.8,28.5,29.66,West,263,15.0,20.0,69,0.00,OVC,,0.01,WeatherDisplay:10.37,2013-04-19 12:50:00,
2013-04-19 07:55:00,37.8,28.9,29.66,West,273,15.0,21.0,70,0.00,OVC,,0.01,WeatherDisplay:10.37,2013-04-19 12:55:00,
2013-04-19 08:00:00,37.6,29.0,29.66,West,279,9.0,14.0,71,0.00,OVC,,0.01,WeatherDisplay:10.37,2013-04-19 13:00:00,
2013-04-19 08:05:00,37.6,29.4,29.67,West,265,6.0,17.0,72,0.00,OVC,,0.01,WeatherDisplay:10.37,2013-04-19 13:05:00,
2013-04-19 08:10:00,37.6,29.4,29.67,WSW,254,10.0,15.0,72,0.00,OVC,,0.01,WeatherDisplay:10.37,2013-04-19 13:10:00,
2013-04-19 08:15:00,37.6,29.4,29.67,WSW,253,15.0,24.0,72,0.00,OVC,,0.01,WeatherDisplay:10.37,2013-04-19 13:15:00,
2013-04-19 08:20:00,37.6,28.7,29.67,West,278,15.0,21.0,70,0.00,OVC,,0.01,WeatherDisplay:10.37,2013-04-19 13:20:00,
2013-04-19 08:25:00,37.6,28.7,29.67,West,272,3.0,17.0,70,0.00,OVC,,0.01,WeatherDisplay:10.37,2013-04-19 13:25:00,
2013-04-19 08:30:00,37.6,28.3,29.68,West,266,14.0,21.0,69,0.00,OVC,,0.01,WeatherDisplay:10.37,2013-04-19 13:30:00,
2013-04-19 08:35:00,37.6,28.3,29.68,West,266,8.0,20.0,69,0.00,OVC,,0.01,WeatherDisplay:10.37,2013-04-19 13:35:00,
2013-04-19 08:40:00,37.6,28.7,29.68,West,275,6.0,20.0,70,0.00,OVC,,0.01,WeatherDisplay:10.37,2013-04-19 13:40:00,
2013-04-19 08:45:00,37.5,28.9,29.68,West,277,8.0,27.0,71,0.00,OVC,,0.01,WeatherDisplay:10.37,2013-04-19 13:45:00,
2013-04-19 08:50:00,37.5,28.9,29.68,West,265,12.0,20.0,71,0.00,OVC,,0.01,WeatherDisplay:10.37,2013-04-19 13:50:00,
2013-04-19 08:55:00,37.5,28.2,29.68,West,264,18.0,30.0,69,0.00,OVC,,0.01,WeatherDisplay:10.37,2013-04-19 13:55:00,
2013-04-19 09:00:00,37.5,27.5,29.68,WSW,247,15.0,25.0,67,0.00,OVC,,0.01,WeatherDisplay:10.37,2013-04-19 14:00:00,
2013-04-19 09:05:00,37.6,27.3,29.69,WSW,254,10.0,23.0,66,0.00,OVC,,0.01,WeatherDisplay:10.37,2013-04-19 14:05:00,
2013-04-19 09:10:00,37.8,27.5,29.70,WSW,251,13.0,23.0,66,0.00,OVC,,0.01,WeatherDisplay:10.37,2013-04-19 14:10:00,
2013-04-19 09:15:00,37.8,27.8,29.70,WSW,256,8.0,21.0,67,0.00,OVC,,0.01,WeatherDisplay:10.37,2013-04-19 14:15:00,
2013-04-19 09:20:00,37.9,27.2,29.70,WSW,245,14.0,20.0,65,0.00,OVC,,0.01,WeatherDisplay:10.37,2013-04-19 14:20:00,
2013-04-19 09:30:00,38.0,26.9,29.70,WSW,255,10.0,35.0,64,0.00,OVC,,0.01,WeatherDisplay:10.37,2013-04-19 14:30:00,
2013-04-19 09:35:00,38.0,27.3,29.70,WSW,251,10.0,24.0,65,0.00,OVC,,0.01,WeatherDisplay:10.37,2013-04-19 14:35:00,
2013-04-19 09:40:00,38.0,27.3,29.70,West,260,18.0,24.0,65,0.00,OVC,,0.01,WeatherDisplay:10.37,2013-04-19 14:40:00,
2013-04-19 09:45:00,38.0,27.6,29.70,West,263,15.0,27.0,66,0.00,OVC,,0.01,WeatherDisplay:10.37,2013-04-19 14:45:00,
2013-04-19 09:50:00,38.0,28.0,29.70,West,267,8.0,18.0,67,0.00,OVC,,0.01,WeatherDisplay:10.37,2013-04-19 14:50:00,
2013-04-19 09:55:00,38.0,28.4,29.70,West,271,8.0,23.0,68,0.00,OVC,,0.01,WeatherDisplay:10.37,2013-04-19 14:55:00,
2013-04-19 10:00:00,38.2,28.5,29.70,WSW,256,12.0,18.0,68,0.00,OVC,,0.01,WeatherDisplay:10.37,2013-04-19 15:00:00,
2013-04-19 10:05:00,38.0,28.7,29.70,SW,223,7.0,15.0,69,0.00,OVC,,0.01,WeatherDisplay:10.37,2013-04-19 15:05:00,
2013-04-19 10:10:00,38.0,28.7,29.70,WSW,240,5.0,21.0,69,0.00,OVC,,0.01,WeatherDisplay:10.37,2013-04-19 15:10:00,
2013-04-19 10:15:00,38.0,28.7,29.70,WSW,252,8.0,14.0,69,0.00,OVC,,0.01,WeatherDisplay:10.37,2013-04-19 15:15:00,
2013-04-19 10:20:00,38.0,28.7,29.70,WSW,254,14.0,25.0,69,0.00,OVC,,0.01,WeatherDisplay:10.37,2013-04-19 15:20:00,
2013-04-19 10:25:00,38.0,28.7,29.70,WSW,254,10.0,14.0,69,0.00,OVC,,0.01,WeatherDisplay:10.37,2013-04-19 15:25:00,
2013-04-19 10:30:00,38.2,29.3,29.70,West,263,8.0,17.0,70,0.00,OVC,,0.01,WeatherDisplay:10.37,2013-04-19 15:30:00,
2013-04-19 10:35:00,38.2,28.9,29.70,WSW,249,12.0,21.0,69,0.00,OVC,,0.01,WeatherDisplay:10.37,2013-04-19 15:35:00,
2013-04-19 10:40:00,38.2,28.9,29.71,WSW,239,7.0,20.0,69,0.00,OVC,,0.01,WeatherDisplay:10.37,2013-04-19 15:40:00,
2013-04-19 10:45:00,38.2,28.9,29.70,WSW,248,5.0,14.0,69,0.00,OVC,,0.01,WeatherDisplay:10.37,2013-04-19 15:45:00,
2013-04-19 10:50:00,38.3,29.0,29.71,WSW,256,6.0,14.0,69,0.00,OVC,,0.01,WeatherDisplay:10.37,2013-04-19 15:50:00,
2013-04-19 10:55:00,38.3,29.4,29.70,WSW,243,10.0,17.0,70,0.00,OVC,,0.01,WeatherDisplay:10.37,2013-04-19 15:55:00,
2013-04-19 11:00:00,38.2,29.6,29.70,SW,230,10.0,15.0,71,0.00,OVC,,0.01,WeatherDisplay:10.37,2013-04-19 16:00:00,
2013-04-19 11:05:00,38.0,29.4,29.71,SSW,212,9.0,20.0,71,0.00,OVC,,0.01,WeatherDisplay:10.37,2013-04-19 16:05:00,
2013-04-19 11:10:00,37.9,29.4,29.71,SW,222,5.0,10.0,71,0.00,OVC,,0.01,WeatherDisplay:10.37,2013-04-19 16:10:00,
2013-04-19 11:15:00,38.0,29.4,29.71,SSW,200,20.0,24.0,71,0.00,OVC,,0.01,WeatherDisplay:10.37,2013-04-19 16:15:00,
2013-04-19 11:20:00,38.0,29.8,29.71,West,264,12.0,20.0,72,0.00,OVC,,0.01,WeatherDisplay:10.37,2013-04-19 16:20:00,
2013-04-19 11:25:00,38.0,29.4,29.71,WSW,237,12.0,23.0,71,0.00,OVC,,0.01,WeatherDisplay:10.37,2013-04-19 16:25:00,
2013-04-19 11:30:00,38.0,29.4,29.71,SW,221,7.0,20.0,71,0.00,OVC,,0.01,WeatherDisplay:10.37,2013-04-19 16:30:00,
2013-04-19 11:35:00,38.0,29.4,29.72,SSW,211,10.0,20.0,71,0.00,OVC,,0.01,WeatherDisplay:10.37,2013-04-19 16:35:00,
2013-04-19 11:40:00,38.0,29.8,29.72,SW,230,5.0,9.0,72,0.00,OVC,,0.01,WeatherDisplay:10.37,2013-04-19 16:40:00,
2013-04-19 11:45:00,38.0,29.4,29.72,SW,228,7.0,18.0,71,0.00,OVC,,0.01,WeatherDisplay:10.37,2013-04-19 16:45:00,
2013-04-19 11:50:00,37.9,29.3,29.72,SSW,212,8.0,15.0,71,0.00,OVC,,0.01,WeatherDisplay:10.37,2013-04-19 16:50:00,
2013-04-19 11:55:00,38.0,29.8,29.72,SW,233,5.0,15.0,72,0.00,OVC,,0.01,WeatherDisplay:10.37,2013-04-19 16:55:00,
2013-04-19 12:00:00,38.0,29.8,29.72,SW,219,7.0,14.0,72,0.00,OVC,,0.01,WeatherDisplay:10.37,2013-04-19 17:00:00,
2013-04-19 12:10:00,38.2,30.0,29.72,SSW,213,8.0,11.0,72,0.00,OVC,,0.01,WeatherDisplay:10.37,2013-04-19 17:10:00,
2013-04-19 12:15:00,38.1,29.9,29.72,SW,234,8.0,18.0,72,0.00,OVC,,0.01,WeatherDisplay:10.37,2013-04-19 17:15:00,
2013-04-19 12:25:00,38.3,29.0,29.73,WSW,244,7.0,17.0,69,0.00,OVC,,0.01,WeatherDisplay:10.37,2013-04-19 17:25:00,
2013-04-19 12:30:00,38.5,29.6,29.73,WSW,255,3.0,18.0,70,0.00,OVC,,0.01,WeatherDisplay:10.37,2013-04-19 17:30:00,
2013-04-19 12:35:00,38.6,30.0,29.73,WSW,255,6.0,15.0,71,0.00,OVC,,0.01,WeatherDisplay:10.37,2013-04-19 17:35:00,
2013-04-19 12:40:00,38.5,29.9,29.73,WSW,246,6.0,18.0,71,0.00,OVC,,0.01,WeatherDisplay:10.37,2013-04-19 17:40:00,
2013-04-19 12:50:00,38.5,29.9,29.74,WSW,253,7.0,11.0,71,0.00,OVC,,0.01,WeatherDisplay:10.37,2013-04-19 17:50:00,
2013-04-19 12:55:00,38.8,30.2,29.75,WSW,248,12.0,21.0,71,0.00,OVC,,0.01,WeatherDisplay:10.37,2013-04-19 17:55:00,
2013-04-19 13:00:00,39.1,29.8,29.74,SW,232,3.0,23.0,69,0.00,OVC,,0.01,WeatherDisplay:10.37,2013-04-19 18:00:00,
2013-04-19 13:10:00,38.9,28.9,29.75,SW,235,6.0,18.0,67,0.00,OVC,,0.01,WeatherDisplay:10.37,2013-04-19 18:10:00,
2013-04-19 13:15:00,39.1,29.1,29.75,WSW,238,10.0,23.0,67,0.00,OVC,,0.01,WeatherDisplay:10.37,2013-04-19 18:15:00,
2013-04-19 13:20:00,39.3,28.9,29.75,SW,231,12.0,20.0,66,0.00,OVC,,0.01,WeatherDisplay:10.37,2013-04-19 18:20:00,
2013-04-19 13:25:00,39.5,29.8,29.75,WSW,239,7.0,21.0,68,0.00,OVC,,0.01,WeatherDisplay:10.37,2013-04-19 18:25:00,
2013-04-19 13:30:00,39.5,29.1,29.76,WSW,241,8.0,23.0,66,0.00,OVC,,0.01,WeatherDisplay:10.37,2013-04-19 18:30:00,
2013-04-19 13:35:00,39.5,29.1,29.75,SW,233,10.0,17.0,66,0.00,OVC,,0.01,WeatherDisplay:10.37,2013-04-19 18:35:00,
2013-04-19 13:40:00,39.3,28.9,29.76,SW,235,9.0,23.0,66,0.00,OVC,,0.01,WeatherDisplay:10.37,2013-04-19 18:40:00,
2013-04-19 13:45:00,39.2,29.2,29.76,SW,217,12.0,25.0,67,0.00,OVC,,0.01,WeatherDisplay:10.37,2013-04-19 18:45:00,
2013-04-19 13:50:00,39.1,29.4,29.76,SSW,212,8.0,11.0,68,0.00,OVC,,0.01,WeatherDisplay:10.37,2013-04-19 18:50:00,
2013-04-19 13:55:00,39.4,29.8,29.76,WSW,238,9.0,14.0,68,0.00,OVC,,0.01,WeatherDisplay:10.37,2013-04-19 18:55:00,
2013-04-19 14:00:00,39.6,29.5,29.76,WSW,238,10.0,32.0,67,0.00,OVC,,0.01,WeatherDisplay:10.37,2013-04-19 19:00:00,
2013-04-19 14:05:00,39.5,29.8,29.76,SW,231,12.0,17.0,68,0.00,OVC,,0.01,WeatherDisplay:10.37,2013-04-19 19:05:00,
2013-04-19 14:10:00,39.6,29.5,29.76,WSW,242,12.0,21.0,67,0.00,OVC,,0.01,WeatherDisplay:10.37,2013-04-19 19:10:00,
2013-04-19 14:15:00,39.8,30.1,29.77,WSW,245,7.0,9.0,68,0.00,OVC,,0.01,WeatherDisplay:10.37,2013-04-19 19:15:00,
2013-04-19 14:20:00,39.8,30.1,29.77,WSW,245,7.0,17.0,68,0.00,OVC,,0.01,WeatherDisplay:10.37,2013-04-19 19:20:00,
2013-04-19 14:30:00,39.5,30.5,29.77,SW,227,8.0,11.0,70,0.00,OVC,,0.01,WeatherDisplay:10.37,2013-04-19 19:30:00,
2013-04-19 14:35:00,39.2,30.6,29.77,SW,235,10.0,21.0,71,0.00,OVC,,0.01,WeatherDisplay:10.37,2013-04-19 19:35:00,
2013-04-19 14:45:00,38.9,31.0,29.77,WSW,257,6.0,25.0,73,0.00,OVC,,0.01,WeatherDisplay:10.37,2013-04-19 19:45:00,
2013-04-19 14:50:00,38.9,30.6,29.78,WSW,241,12.0,21.0,72,0.00,OVC,,0.01,WeatherDisplay:10.37,2013-04-19 19:50:00,
2013-04-19 14:55:00,38.9,30.6,29.78,SW,229,7.0,21.0,72,0.00,OVC,,0.01,WeatherDisplay:10.37,2013-04-19 19:55:00,
2013-04-19 15:00:00,38.9,30.3,29.77,WSW,248,13.0,23.0,71,0.00,OVC,,0.01,WeatherDisplay:10.37,2013-04-19 20:00:00,
2013-04-19 15:05:00,38.9,30.3,29.77,WSW,250,5.0,12.0,71,0.00,OVC,,0.01,WeatherDisplay:10.37,2013-04-19 20:05:00,
2013-04-19 15:10:00,39.1,30.5,29.78,SW,236,12.0,15.0,71,0.00,OVC,,0.01,WeatherDisplay:10.37,2013-04-19 20:10:00,
2013-04-19 15:15:00,39.2,30.2,29.77,WSW,250,10.0,27.0,70,0.00,OVC,,0.01,WeatherDisplay:10.37,2013-04-19 20:15:00,
2013-04-19 15:20:00,39.3,30.3,29.77,WSW,254,7.0,21.0,70,0.00,OVC,,0.01,WeatherDisplay:10.37,2013-04-19 20:20:00,
2013-04-19 15:25:00,39.5,30.9,29.77,West,268,12.0,15.0,71,0.00,OVC,,0.01,WeatherDisplay:10.37,2013-04-19 20:25:00,
2013-04-19 15:30:00,39.8,30.8,29.77,West,267,13.0,30.0,70,0.00,OVC,,0.01,WeatherDisplay:10.37,2013-04-19 20:30:00,
2013-04-19 15:35:00,39.9,30.2,29.77,West,261,8.0,24.0,68,0.00,OVC,,0.01,WeatherDisplay:10.37,2013-04-19 20:35:00,
2013-04-19 15:40:00,40.2,30.1,29.77,West,271,14.0,20.0,67,0.00,OVC,,0.01,WeatherDisplay:10.37,2013-04-19 20:40:00,
2013-04-19 15:45:00,40.4,29.9,29.78,West,271,8.0,17.0,66,0.00,OVC,,0.01,WeatherDisplay:10.37,2013-04-19 20:45:00,
2013-04-19 15:50:00,40.5,30.0,29.78,West,274,9.0,17.0,66,0.00,OVC,,0.01,WeatherDisplay:10.37,2013-04-19 20:50:00,
2013-04-19 15:55:00,40.2,30.1,29.78,West,271,14.0,32.0,67,0.00,OVC,,0.01,WeatherDisplay:10.37,2013-04-19 20:55:00,
2013-04-19 16:00:00,39.6,30.3,29.78,West,261,5.0,21.0,69,0.00,OVC,,0.01,WeatherDisplay:10.37,2013-04-19 21:00:00,
2013-04-19 16:05:00,39.5,30.9,29.79,West,264,12.0,24.0,71,0.00,OVC,,0.01,WeatherDisplay:10.37,2013-04-19 21:05:00,
2013-04-19 16:10:00,39.1,30.5,29.79,West,280,10.0,27.0,71,0.00,OVC,,0.01,WeatherDisplay:10.37,2013-04-19 21:10:00,
2013-04-19 16:15:00,39.0,31.1,29.80,West,276,10.0,27.0,73,0.00,OVC,,0.01,WeatherDisplay:10.37,2013-04-19 21:15:00,
2013-04-19 16:20:00,39.1,30.8,29.80,West,274,13.0,30.0,72,0.00,OVC,,0.01,WeatherDisplay:10.37,2013-04-19 21:20:00,
2013-04-19 16:25:00,39.2,31.3,29.80,West,270,12.0,30.0,73,0.00,-RA,,0.01,WeatherDisplay:10.37,2013-04-19 21:25:00,
2013-04-19 16:30:00,39.2,30.9,29.80,West,262,15.0,21.0,72,0.00,-RA,,0.01,WeatherDisplay:10.37,2013-04-19 21:30:00,
2013-04-19 16:35:00,39.5,30.9,29.80,West,274,18.0,29.0,71,0.00,-RA,,0.01,WeatherDisplay:10.37,2013-04-19 21:35:00,
2013-04-19 16:40:00,39.6,30.3,29.80,West,268,7.0,15.0,69,0.00,-RA,,0.01,WeatherDisplay:10.37,2013-04-19 21:40:00,
2013-04-19 16:45:00,39.9,30.5,29.81,West,267,5.0,15.0,69,0.00,OVC,,0.01,WeatherDisplay:10.37,2013-04-19 21:45:00,
2013-04-19 16:50:00,40.2,30.4,29.81,West,269,14.0,25.0,68,0.00,OVC,,0.01,WeatherDisplay:10.37,2013-04-19 21:50:00,
2013-04-19 16:55:00,40.2,29.7,29.81,West,274,16.0,24.0,66,0.00,OVC,,0.01,WeatherDisplay:10.37,2013-04-19 21:55:00,
2013-04-19 17:00:00,40.3,29.8,29.81,West,264,6.0,15.0,66,0.00,OVC,,0.01,WeatherDisplay:10.37,2013-04-19 22:00:00,
2013-04-19 17:05:00,40.5,29.6,29.81,West,259,10.0,29.0,65,0.00,OVC,,0.01,WeatherDisplay:10.37,2013-04-19 22:05:00,
2013-04-19 17:10:00,40.6,30.1,29.81,West,261,6.0,12.0,66,0.00,OVC,,0.01,WeatherDisplay:10.37,2013-04-19 22:10:00,
2013-04-19 17:15:00,40.6,30.1,29.81,West,265,14.0,18.0,66,0.00,OVC,,0.01,WeatherDisplay:10.37,2013-04-19 22:15:00,
2013-04-19 17:25:00,40.6,29.7,29.82,WSW,245,9.0,18.0,65,0.00,OVC,,0.01,WeatherDisplay:10.37,2013-04-19 22:25:00,
2013-04-19 17:30:00,40.5,30.0,29.82,WSW,246,9.0,15.0,66,0.00,OVC,,0.01,WeatherDisplay:10.37,2013-04-19 22:30:00,
2013-04-19 17:35:00,40.2,30.5,29.83,WSW,247,8.0,9.0,68,0.00,OVC,,0.01,WeatherDisplay:10.37,2013-04-19 22:35:00,
2013-04-19 17:40:00,39.9,30.5,29.83,SW,236,3.0,9.0,69,0.00,OVC,,0.01,WeatherDisplay:10.37,2013-04-19 22:40:00,
2013-04-19 17:45:00,39.9,30.9,29.83,WSW,239,1.0,8.0,70,0.00,OVC,,0.01,WeatherDisplay:10.37,2013-04-19 22:45:00,
2013-04-19 17:50:00,39.9,30.9,29.83,West,264,6.0,11.0,70,0.00,OVC,,0.01,WeatherDisplay:10.37,2013-04-19 22:50:00,
2013-04-19 17:55:00,40.1,31.4,29.83,West,264,8.0,20.0,71,0.00,OVC,,0.01,WeatherDisplay:10.37,2013-04-19 22:55:00,
2013-04-19 18:00:00,40.0,31.0,29.83,West,262,15.0,25.0,70,0.00,OVC,,0.01,WeatherDisplay:10.37,2013-04-19 23:00:00,
2013-04-19 18:05:00,39.9,30.5,29.83,West,270,13.0,27.0,69,0.00,-RA,,0.01,WeatherDisplay:10.37,2013-04-19 23:05:00,
2013-04-19 18:10:00,40.1,31.1,29.83,West,265,6.0,11.0,70,0.00,-RA,,0.01,WeatherDisplay:10.37,2013-04-19 23:10:00,
2013-04-19 18:15:00,40.2,31.2,29.84,West,265,3.0,11.0,70,0.00,-RA,,0.01,WeatherDisplay:10.37,2013-04-19 23:15:00,
2013-04-19 18:20:00,40.2,30.8,29.84,WSW,251,16.0,32.0,69,0.00,-RA,,0.01,WeatherDisplay:10.37,2013-04-19 23:20:00,
2013-04-19 18:25:00,39.9,31.6,29.84,West,265,10.0,25.0,72,0.00,-RA,,0.01,WeatherDisplay:10.37,2013-04-19 23:25:00,
2013-04-19 18:30:00,39.6,31.7,29.84,West,264,6.0,20.0,73,0.00,-RA,,0.01,WeatherDisplay:10.37,2013-04-19 23:30:00,
2013-04-19 18:35:00,39.5,31.9,29.84,West,263,2.0,17.0,74,0.00,BKN,,0.01,WeatherDisplay:10.37,2013-04-19 23:35:00,
2013-04-19 18:40:00,39.3,31.7,29.84,West,260,8.0,15.0,74,0.00,BKN,,0.01,WeatherDisplay:10.37,2013-04-19 23:40:00,
2013-04-19 18:45:00,39.3,31.7,29.85,WSW,249,9.0,15.0,74,0.00,-RA,,0.01,WeatherDisplay:10.37,2013-04-19 23:45:00,
2013-04-19 18:50:00,39.3,31.7,29.85,WSW,243,3.0,20.0,74,0.00,-RA,,0.01,WeatherDisplay:10.37,2013-04-19 23:50:00,
2013-04-19 18:55:00,39.3,31.7,29.86,WSW,245,5.0,11.0,74,0.00,-RA,,0.01,WeatherDisplay:10.37,2013-04-19 23:55:00,
2013-04-19 19:00:00,39.3,31.7,29.86,WSW,240,7.0,15.0,74,0.00,-RA,,0.01,WeatherDisplay:10.37,2013-04-20 00:00:00,
2013-04-19 19:05:00,39.3,32.0,29.86,WSW,253,5.0,11.0,75,0.00,-RA,,0.01,WeatherDisplay:10.37,2013-04-20 00:05:00,
2013-04-19 19:10:00,39.2,32.3,29.86,WSW,258,8.0,20.0,76,0.00,-RA,,0.01,WeatherDisplay:10.37,2013-04-20 00:10:00,
2013-04-19 19:15:00,39.1,32.2,29.87,West,270,2.0,20.0,76,0.00,BKN,,0.01,WeatherDisplay:10.37,2013-04-20 00:15:00,
2013-04-19 19:25:00,39.1,32.5,29.87,West,268,7.0,11.0,77,0.00,-RA,,0.01,WeatherDisplay:10.37,2013-04-20 00:25:00,
2013-04-19 19:30:00,38.8,32.2,29.87,West,277,6.0,24.0,77,0.00,-RA,,0.01,WeatherDisplay:10.37,2013-04-20 00:30:00,
2013-04-19 19:35:00,38.5,31.9,29.88,West,279,8.0,9.0,77,0.00,-RA,,0.01,WeatherDisplay:10.37,2013-04-20 00:35:00,
2013-04-19 19:40:00,38.5,32.2,29.88,West,268,3.0,9.0,78,0.00,-RA,,0.01,WeatherDisplay:10.37,2013-04-20 00:40:00,
2013-04-19 19:45:00,38.5,32.2,29.88,West,276,9.0,9.0,78,0.00,-RA,,0.01,WeatherDisplay:10.37,2013-04-20 00:45:00,
2013-04-19 19:50:00,38.5,32.6,29.88,West,274,7.0,14.0,79,0.00,-RA,,0.01,WeatherDisplay:10.37,2013-04-20 00:50:00,
2013-04-19 19:55:00,38.5,32.6,29.89,West,262,7.0,24.0,79,0.00,OVC,,0.01,WeatherDisplay:10.37,2013-04-20 00:55:00,
2013-04-19 20:00:00,38.5,32.6,29.89,West,263,7.0,14.0,79,0.00,OVC,,0.01,WeatherDisplay:10.37,2013-04-20 01:00:00,
2013-04-19 20:05:00,38.5,32.6,29.89,West,264,3.0,11.0,79,0.00,OVC,,0.01,WeatherDisplay:10.37,2013-04-20 01:05:00,
2013-04-19 20:10:00,38.6,32.6,29.89,West,280,5.0,11.0,79,0.00,OVC,,0.01,WeatherDisplay:10.37,2013-04-20 01:10:00,
2013-04-19 20:15:00,38.6,32.6,29.89,WNW,291,5.0,15.0,79,0.00,OVC,,0.01,WeatherDisplay:10.37,2013-04-20 01:15:00,
2013-04-19 20:20:00,38.8,32.5,29.90,West,263,8.0,23.0,78,0.00,OVC,,0.01,WeatherDisplay:10.37,2013-04-20 01:20:00,
2013-04-19 20:25:00,38.8,32.2,29.90,West,268,9.0,18.0,77,0.00,OVC,,0.01,WeatherDisplay:10.37,2013-04-20 01:25:00,
2013-04-19 20:30:00,38.8,32.2,29.90,West,276,9.0,14.0,77,0.00,OVC,,0.01,WeatherDisplay:10.37,2013-04-20 01:30:00,
2013-04-19 20:35:00,38.8,32.2,29.90,West,269,5.0,14.0,77,0.00,OVC,,0.01,WeatherDisplay:10.37,2013-04-20 01:35:00,
2013-04-19 20:40:00,38.6,31.4,29.91,West,268,2.0,11.0,75,0.00,OVC,,0.01,WeatherDisplay:10.37,2013-04-20 01:40:00,
2013-04-19 20:45:00,38.5,30.9,29.91,West,269,3.0,11.0,74,0.00,OVC,,0.01,WeatherDisplay:10.37,2013-04-20 01:45:00,
2013-04-19 20:50:00,38.3,31.1,29.91,West,266,8.0,15.0,75,0.00,OVC,,0.01,WeatherDisplay:10.37,2013-04-20 01:50:00,
2013-04-19 20:55:00,38.3,31.4,29.92,West,279,2.0,8.0,76,0.00,OVC,,0.01,WeatherDisplay:10.37,2013-04-20 01:55:00,
2013-04-19 21:00:00,38.3,31.7,29.92,WNW,287,8.0,18.0,77,0.00,OVC,,0.01,WeatherDisplay:10.37,2013-04-20 02:00:00,
2013-04-19 21:05:00,38.2,32.0,29.92,West,278,6.0,23.0,78,0.00,OVC,,0.01,WeatherDisplay:10.37,2013-04-20 02:05:00,
2013-04-19 21:10:00,38.0,32.1,29.92,West,278,6.0,15.0,79,0.00,OVC,,0.01,WeatherDisplay:10.37,2013-04-20 02:10:00,
2013-04-19 21:15:00,37.9,32.0,29.92,West,274,7.0,17.0,79,0.00,-RA,,0.01,WeatherDisplay:10.37,2013-04-20 02:15:00,
2013-04-19 21:20:00,37.9,32.3,29.93,West,273,6.0,11.0,80,0.00,-RA,,0.01,WeatherDisplay:10.37,2013-04-20 02:20:00,
2013-04-19 21:25:00,37.8,32.2,29.93,West,278,2.0,9.0,80,0.00,-RA,,0.01,WeatherDisplay:10.37,2013-04-20 02:25:00,
2013-04-19 21:30:00,37.8,32.2,29.93,West,262,5.0,9.0,80,0.00,-RA,,0.01,WeatherDisplay:10.37,2013-04-20 02:30:00,
2013-04-19 21:35:00,37.8,32.5,29.93,WSW,249,1.0,6.0,81,0.00,OVC,,0.01,WeatherDisplay:10.37,2013-04-20 02:35:00,
2013-04-19 21:40:00,37.8,32.5,29.94,West,264,7.0,9.0,81,0.00,OVC,,0.01,WeatherDisplay:10.37,2013-04-20 02:40:00,
2013-04-19 21:45:00,37.8,32.5,29.94,West,269,5.0,8.0,81,0.00,OVC,,0.01,WeatherDisplay:10.37,2013-04-20 02:45:00,
2013-04-19 21:50:00,37.8,32.2,29.94,West,267,2.0,9.0,80,0.00,OVC,,0.01,WeatherDisplay:10.37,2013-04-20 02:50:00,
2013-04-19 21:55:00,37.9,32.3,29.94,West,274,1.0,8.0,80,0.00,OVC,,0.01,WeatherDisplay:10.37,2013-04-20 02:55:00,
2013-04-19 22:00:00,37.9,32.3,29.94,WNW,284,1.0,6.0,80,0.00,OVC,,0.01,WeatherDisplay:10.37,2013-04-20 03:00:00,
2013-04-19 22:05:00,37.9,32.0,29.94,West,269,8.0,11.0,79,0.00,OVC,,0.01,WeatherDisplay:10.37,2013-04-20 03:05:00,
2013-04-19 22:10:00,37.9,32.0,29.94,West,265,5.0,15.0,79,0.00,OVC,,0.01,WeatherDisplay:10.37,2013-04-20 03:10:00,
2013-04-19 22:15:00,37.9,32.0,29.95,West,273,8.0,17.0,79,0.00,OVC,,0.01,WeatherDisplay:10.37,2013-04-20 03:15:00,
2013-04-19 22:20:00,38.0,32.1,29.95,WNW,294,7.0,17.0,79,0.00,OVC,,0.01,WeatherDisplay:10.37,2013-04-20 03:20:00,
2013-04-19 22:25:00,37.9,32.0,29.95,WNW,297,5.0,18.0,79,0.00,OVC,,0.01,WeatherDisplay:10.37,2013-04-20 03:25:00,
2013-04-19 22:30:00,37.8,32.1,29.95,WNW,293,3.0,9.0,80,0.00,OVC,,0.01,WeatherDisplay:10.37,2013-04-20 03:30:00,
2013-04-19 22:35:00,37.5,31.9,29.95,WNW,290,3.0,14.0,80,0.00,OVC,,0.01,WeatherDisplay:10.37,2013-04-20 03:35:00,
2013-04-19 22:40:00,37.2,31.6,29.95,WNW,285,5.0,15.0,80,0.00,OVC,,0.01,WeatherDisplay:10.37,2013-04-20 03:40:00,
2013-04-19 22:45:00,37.2,31.3,29.95,WNW,283,7.0,14.0,79,0.00,OVC,,0.01,WeatherDisplay:10.37,2013-04-20 03:45:00,
2013-04-19 22:50:00,37.0,31.1,29.95,West,279,7.0,14.0,79,0.00,OVC,,0.01,WeatherDisplay:10.37,2013-04-20 03:50:00,
2013-04-19 22:55:00,37.0,31.1,29.95,West,276,6.0,9.0,79,0.00,BKN,,0.01,WeatherDisplay:10.37,2013-04-20 03:55:00,
2013-04-19 23:00:00,36.9,31.0,29.96,West,280,3.0,23.0,79,0.00,BKN,,0.01,WeatherDisplay:10.37,2013-04-20 04:00:00,
2013-04-19 23:05:00,37.0,30.8,29.96,West,281,5.0,23.0,78,0.00,SCT,,0.01,WeatherDisplay:10.37,2013-04-20 04:05:00,
2013-04-19 23:10:00,37.0,30.8,29.96,West,272,12.0,17.0,78,0.00,SCT,,0.01,WeatherDisplay:10.37,2013-04-20 04:10:00,
2013-04-19 23:15:00,37.2,30.9,29.97,West,278,7.0,15.0,78,0.00,SCT,,0.01,WeatherDisplay:10.37,2013-04-20 04:15:00,
2013-04-19 23:20:00,37.0,31.1,29.96,WNW,283,8.0,15.0,79,0.00,SCT,,0.01,WeatherDisplay:10.37,2013-04-20 04:20:00,
2013-04-19 23:25:00,37.0,30.8,29.96,West,274,12.0,17.0,78,0.00,BKN,,0.01,WeatherDisplay:10.37,2013-04-20 04:25:00,
2013-04-19 23:30:00,37.0,30.8,29.97,West,278,2.0,11.0,78,0.00,BKN,,0.01,WeatherDisplay:10.37,2013-04-20 04:30:00,
2013-04-19 23:35:00,37.0,30.8,29.97,West,279,6.0,15.0,78,0.00,BKN,,0.01,WeatherDisplay:10.37,2013-04-20 04:35:00,
2013-04-19 23:40:00,37.0,30.8,29.97,West,279,10.0,15.0,78,0.00,BKN,,0.01,WeatherDisplay:10.37,2013-04-20 04:40:00,
2013-04-19 23:50:00,37.0,30.5,29.97,WNW,284,12.0,12.0,77,0.00,OVC,,0.01,WeatherDisplay:10.37,2013-04-20 04:50:00,
2013-04-19 23:55:00,37.0,30.5,29.97,WNW,288,5.0,8.0,77,0.00,OVC,,0.01,WeatherDisplay:10.37,2013-04-20 04:55:00,